createdAt,value
2023-01-12T00:02:19.646Z,5.13
2023-01-12T00:04:46.539Z,6.60
2023-01-12T00:07:16.633Z,6.05
2023-01-12T00:09:45.600Z,6.80
2023-01-12T00:12:15.096Z,6.50
2023-01-12T00:14:41.912Z,7.57
2023-01-12T00:17:09.187Z,7.78
2023-01-12T00:19:38.743Z,7.50
2023-01-12T00:22:11.766Z,9.80
2023-01-12T00:24:44.470Z,9.73
2023-01-12T00:27:15.365Z,8.82
2023-01-12T00:29:44.564Z,9.33
2023-01-12T00:32:19.605Z,8.77
2023-01-12T00:34:49.189Z,10.68
2023-01-12T00:37:16.065Z,9.32
2023-01-12T00:40:00.930Z,10.73
2023-01-12T00:42:47.010Z,11.05
2023-01-12T00:45:26.045Z,11.00
2023-01-12T00:47:53.773Z,10.05
2023-01-12T00:50:20.723Z,10.50
2023-01-12T00:52:49.683Z,9.88
2023-01-12T00:55:16.511Z,9.13
2023-01-12T00:57:46.366Z,10.55
2023-01-12T01:00:18.232Z,10.10
2023-01-12T01:02:47.188Z,10.20
2023-01-12T01:05:17.766Z,9.95
2023-01-12T01:07:46.843Z,10.95
2023-01-12T01:10:16.972Z,11.02
2023-01-12T01:12:45.892Z,11.02
2023-01-12T01:15:13.122Z,10.43
2023-01-12T01:17:40.023Z,10.82
2023-01-12T01:20:09.613Z,9.98
2023-01-12T01:22:38.577Z,8.82
2023-01-12T01:25:08.825Z,9.57
2023-01-12T01:27:35.599Z,8.15
2023-01-12T01:30:04.530Z,8.30
2023-01-12T01:32:31.234Z,7.10
2023-01-12T01:35:02.980Z,7.10
2023-01-12T01:39:56.500Z,6.68
2023-01-12T01:42:33.058Z,6.25
2023-01-12T01:45:01.423Z,6.22
2023-01-12T01:47:39.564Z,5.38
2023-01-12T01:50:16.278Z,6.28
2023-01-12T01:52:50.139Z,6.15
2023-01-12T01:55:22.299Z,5.07
2023-01-12T01:57:56.840Z,4.82
2023-01-12T02:00:24.962Z,4.78
2023-01-12T02:02:52.971Z,4.43
2023-01-12T02:05:24.727Z,4.78
2023-01-12T02:10:23.130Z,4.90
2023-01-12T02:13:09.424Z,5.20
2023-01-12T02:16:12.826Z,5.50
2023-01-12T02:18:57.941Z,6.60
2023-01-12T02:21:36.747Z,7.85
2023-01-12T02:24:49.056Z,6.65
2023-01-12T02:27:29.921Z,5.40
2023-01-12T02:30:09.078Z,4.53
2023-01-12T02:32:50.273Z,5.20
2023-01-12T02:35:16.956Z,5.82
2023-01-12T02:37:54.171Z,4.97
2023-01-12T02:40:37.880Z,5.00
2023-01-12T02:43:23.226Z,4.88
2023-01-12T02:46:04.005Z,4.82
2023-01-12T02:48:38.011Z,4.82
2023-01-12T02:51:27.098Z,5.20
2023-01-12T02:53:59.932Z,5.35
2023-01-12T02:56:43.363Z,4.57
2023-01-12T02:59:33.017Z,5.28
2023-01-12T03:02:12.859Z,4.65
2023-01-12T03:04:42.140Z,5.30
2023-01-12T03:07:15.034Z,4.07
2023-01-12T03:10:18.675Z,4.05
2023-01-12T03:12:45.757Z,4.68
2023-01-12T03:15:18.810Z,3.83
2023-01-12T03:18:14.305Z,3.40
2023-01-12T03:21:08.769Z,3.30
2023-01-12T03:24:17.629Z,3.60
2023-01-12T03:26:52.257Z,3.20
2023-01-12T03:29:35.324Z,3.20
2023-01-12T03:32:04.952Z,2.90
2023-01-12T03:34:33.247Z,2.95
2023-01-12T03:37:19.954Z,2.85
2023-01-12T03:39:52.401Z,3.20
2023-01-12T03:42:29.967Z,3.35
2023-01-12T03:45:22.068Z,3.60
2023-01-12T03:47:55.215Z,3.28
2023-01-12T03:50:27.363Z,3.47
2023-01-12T03:53:00.708Z,3.67
2023-01-12T03:55:30.009Z,3.50
2023-01-12T03:58:00.283Z,3.00
2023-01-12T04:00:29.157Z,2.92
2023-01-12T04:03:12.966Z,2.50
2023-01-12T04:05:41.946Z,2.65
2023-01-12T04:08:09.383Z,2.80
2023-01-12T04:10:36.248Z,3.00
2023-01-12T04:13:03.078Z,2.63
2023-01-12T04:15:37.936Z,3.13
2023-01-12T04:18:05.417Z,2.95
2023-01-12T04:20:34.435Z,2.97
2023-01-12T04:23:01.298Z,2.78
2023-01-12T04:25:31.458Z,2.92
2023-01-12T04:28:02.210Z,2.25
2023-01-12T04:30:32.908Z,2.30
2023-01-12T04:33:01.072Z,3.03
2023-01-12T04:35:30.378Z,2.65
2023-01-12T04:38:05.950Z,2.85
2023-01-12T04:40:34.948Z,3.08
2023-01-12T04:43:07.931Z,2.72
2023-01-12T04:45:42.104Z,2.20
2023-01-12T04:48:11.742Z,2.08
2023-01-12T04:50:39.729Z,2.08
2023-01-12T04:53:08.768Z,2.15
2023-01-12T04:55:40.105Z,2.00
2023-01-12T04:58:09.119Z,1.67
2023-01-12T05:00:38.406Z,1.92
2023-01-12T05:03:07.384Z,2.35
2023-01-12T05:05:35.901Z,1.50
2023-01-12T05:08:23.120Z,1.23
2023-01-12T05:10:55.130Z,1.50
2023-01-12T05:13:22.638Z,1.10
2023-01-12T05:15:51.657Z,1.40
2023-01-12T05:18:18.567Z,1.13
2023-01-12T05:20:47.755Z,1.40
2023-01-12T05:23:14.496Z,1.50
2023-01-12T05:25:44.230Z,1.70
2023-01-12T05:28:13.173Z,1.40
2023-01-12T05:30:39.963Z,1.50
2023-01-12T05:33:15.796Z,1.02
2023-01-12T05:35:45.848Z,1.85
2023-01-12T05:38:13.024Z,1.80
2023-01-12T05:40:39.724Z,2.25
2023-01-12T05:43:24.866Z,2.00
2023-01-12T05:45:53.861Z,2.25
2023-01-12T05:48:23.004Z,2.38
2023-01-12T05:50:52.200Z,2.70
2023-01-12T05:53:21.457Z,2.60
2023-01-12T05:55:48.232Z,3.58
2023-01-12T05:58:15.078Z,3.35
2023-01-12T06:00:47.003Z,4.00
2023-01-12T06:03:16.482Z,4.18
2023-01-12T06:05:43.322Z,3.83
2023-01-12T06:08:11.122Z,5.32
2023-01-12T06:10:39.337Z,3.80
2023-01-12T06:13:24.475Z,4.50
2023-01-12T06:15:54.263Z,5.53
2023-01-12T06:18:23.844Z,5.53
2023-01-12T06:20:55.694Z,5.40
2023-01-12T06:23:22.413Z,5.93
2023-01-12T06:26:04.813Z,5.28
2023-01-12T06:28:34.430Z,6.65
2023-01-12T06:31:04.657Z,6.90
2023-01-12T06:33:34.152Z,6.90
2023-01-12T06:36:04.065Z,6.80
2023-01-12T06:38:37.054Z,6.90
2023-01-12T06:41:27.825Z,6.88
2023-01-12T06:43:54.534Z,7.25
2023-01-12T06:46:21.561Z,7.47
2023-01-12T06:48:50.870Z,7.40
2023-01-12T06:51:17.571Z,6.55
2023-01-12T06:53:46.600Z,7.07
2023-01-12T06:56:13.333Z,8.20
2023-01-12T06:58:46.248Z,7.25
2023-01-12T07:01:15.720Z,7.07
2023-01-12T07:03:42.581Z,7.32
2023-01-12T07:06:09.611Z,5.78
2023-01-12T07:08:36.868Z,7.35
2023-01-12T07:11:12.560Z,6.40
2023-01-12T07:13:39.321Z,6.82
2023-01-12T07:16:08.793Z,6.57
2023-01-12T07:18:40.196Z,7.43
2023-01-12T07:21:08.946Z,7.00
2023-01-12T07:23:37.734Z,6.43
2023-01-12T07:26:04.599Z,6.90
2023-01-12T07:28:33.713Z,7.55
2023-01-12T07:31:06.091Z,7.43
2023-01-12T07:33:38.464Z,7.00
2023-01-12T07:36:08.301Z,6.50
2023-01-12T07:38:35.134Z,7.22
2023-01-12T07:41:03.277Z,7.40
2023-01-12T07:43:33.644Z,7.35
2023-01-12T07:46:00.823Z,8.27
2023-01-12T07:48:27.880Z,7.85
2023-01-12T07:50:54.886Z,7.05
2023-01-12T07:53:23.805Z,8.20
2023-01-12T07:55:50.526Z,7.63
2023-01-12T07:58:19.577Z,8.05
2023-01-12T08:00:48.956Z,8.00
2023-01-12T08:03:15.673Z,6.57
2023-01-12T08:05:47.083Z,9.13
2023-01-12T08:08:14.012Z,7.07
2023-01-12T08:10:50.244Z,7.80
2023-01-12T08:13:18.740Z,7.63
2023-01-12T08:15:49.726Z,6.82
2023-01-12T08:18:23.697Z,8.27
2023-01-12T08:20:51.672Z,7.45
2023-01-12T08:23:32.637Z,7.47
2023-01-12T08:26:04.358Z,7.10
2023-01-12T08:31:14.030Z,7.18
2023-01-12T08:33:42.328Z,8.13
2023-01-12T08:36:16.744Z,8.85
2023-01-12T08:38:43.798Z,8.85
2023-01-12T08:41:29.065Z,7.78
2023-01-12T08:44:01.961Z,7.80
2023-01-12T08:46:50.423Z,7.00
2023-01-12T08:49:21.839Z,8.13
2023-01-12T08:51:52.089Z,8.27
2023-01-12T08:54:20.814Z,7.70
2023-01-12T08:56:50.217Z,8.10
2023-01-12T08:59:19.122Z,8.40
2023-01-12T09:01:49.190Z,8.75
2023-01-12T09:04:16.044Z,8.88
2023-01-12T09:06:48.412Z,8.45
2023-01-12T09:09:19.056Z,8.45
2023-01-12T09:11:49.512Z,6.90
2023-01-12T09:14:17.152Z,7.65
2023-01-12T09:16:45.360Z,8.95
2023-01-12T09:19:12.258Z,7.85
2023-01-12T09:21:44.660Z,7.75
2023-01-12T09:24:14.779Z,8.50
2023-01-12T09:26:44.461Z,8.07
2023-01-12T09:29:14.757Z,8.50
2023-01-12T09:31:44.034Z,7.00
2023-01-12T09:34:16.186Z,7.78
2023-01-12T09:36:43.177Z,7.70
2023-01-12T09:39:26.980Z,7.70
2023-01-12T09:42:13.738Z,8.18
2023-01-12T09:45:04.669Z,8.38
2023-01-12T09:47:31.466Z,6.97
2023-01-12T09:50:28.233Z,7.90
2023-01-12T09:53:19.864Z,6.28
2023-01-12T09:56:08.012Z,7.55
2023-01-12T09:58:58.829Z,7.70
2023-01-12T10:01:29.587Z,7.97
2023-01-12T10:03:59.828Z,9.07
2023-01-12T10:06:27.117Z,9.18
2023-01-12T10:08:57.424Z,8.32
2023-01-12T10:11:49.140Z,7.50
2023-01-12T10:14:27.976Z,7.22
2023-01-12T10:17:06.809Z,6.43
2023-01-12T10:19:39.494Z,6.32
2023-01-12T10:22:36.926Z,7.35
2023-01-12T10:25:18.916Z,6.15
2023-01-12T10:27:50.297Z,6.03
2023-01-12T10:30:18.917Z,6.53
2023-01-12T10:32:46.072Z,6.78
2023-01-12T10:35:15.765Z,6.10
2023-01-12T10:37:51.663Z,6.28
2023-01-12T10:40:35.651Z,6.50
2023-01-12T10:43:20.720Z,7.10
2023-01-12T10:46:15.458Z,6.60
2023-01-12T10:48:47.977Z,6.32
2023-01-12T10:51:35.891Z,6.55
2023-01-12T10:54:18.736Z,6.85
2023-01-12T10:57:00.286Z,7.20
2023-01-12T10:59:32.287Z,6.10
2023-01-12T11:02:17.319Z,6.25
2023-01-12T11:04:49.719Z,6.25
2023-01-12T11:07:22.796Z,6.70
2023-01-12T11:09:49.700Z,7.35
2023-01-12T11:12:29.437Z,6.18
2023-01-12T11:15:07.614Z,6.88
2023-01-12T11:17:54.857Z,6.90
2023-01-12T11:20:51.037Z,6.28
2023-01-12T11:23:41.664Z,7.15
2023-01-12T11:26:18.824Z,6.22
2023-01-12T11:28:50.790Z,6.32
2023-01-12T11:31:31.427Z,6.65
2023-01-12T11:34:13.506Z,7.47
2023-01-12T11:36:50.733Z,6.95
2023-01-12T11:39:23.875Z,6.03
2023-01-12T11:42:19.964Z,7.07
2023-01-12T11:44:57.603Z,6.60
2023-01-12T11:47:31.938Z,5.68
2023-01-12T11:50:06.977Z,5.70
2023-01-12T11:52:34.636Z,6.88
2023-01-12T11:55:04.020Z,6.30
2023-01-12T11:57:33.797Z,5.65
2023-01-12T12:00:14.785Z,6.18
2023-01-12T12:03:05.613Z,7.67
2023-01-12T12:05:58.404Z,5.93
2023-01-12T12:09:02.099Z,5.30
2023-01-12T12:11:58.505Z,4.88
2023-01-12T12:14:28.906Z,4.30
2023-01-12T12:17:19.569Z,3.90
2023-01-12T12:20:14.483Z,2.85
2023-01-12T12:22:50.334Z,2.75
2023-01-12T12:25:35.001Z,2.13
2023-01-12T12:28:07.637Z,2.13
2023-01-12T12:30:55.619Z,3.15
2023-01-12T12:34:03.740Z,2.47
2023-01-12T12:37:14.877Z,1.50
2023-01-12T12:39:55.669Z,2.03
2023-01-12T12:43:02.904Z,1.80
2023-01-12T12:45:43.354Z,2.22
2023-01-12T12:48:14.385Z,1.52
2023-01-12T12:51:08.347Z,1.90
2023-01-12T12:53:47.418Z,1.90
2023-01-12T12:56:17.432Z,1.58
2023-01-12T12:58:49.981Z,2.17
2023-01-12T13:01:25.364Z,1.60
2023-01-12T13:03:56.022Z,1.58
2023-01-12T13:06:38.350Z,1.95
2023-01-12T13:09:27.937Z,1.90
2023-01-12T13:12:01.386Z,1.65
2023-01-12T13:14:39.269Z,1.60
2023-01-12T13:17:27.050Z,1.67
2023-01-12T13:20:13.677Z,1.80
2023-01-12T13:22:51.261Z,1.55
2023-01-12T13:25:20.861Z,2.20
2023-01-12T13:27:59.973Z,1.95
2023-01-12T13:30:29.663Z,1.67
2023-01-12T13:33:17.148Z,2.53
2023-01-12T13:35:46.860Z,2.28
2023-01-12T13:38:22.289Z,1.70
2023-01-12T13:40:56.227Z,1.98
2023-01-12T13:43:30.699Z,1.70
2023-01-12T13:46:20.327Z,1.40
2023-01-12T13:48:53.689Z,1.50
2023-01-12T13:51:38.980Z,1.52
2023-01-12T13:54:10.923Z,1.80
2023-01-12T13:56:38.217Z,1.98
2023-01-12T13:59:15.800Z,1.52
2023-01-12T14:01:47.443Z,1.80
2023-01-12T14:06:59.154Z,1.73
2023-01-12T14:09:44.025Z,1.50
2023-01-12T14:12:29.478Z,1.95
2023-01-12T14:15:23.796Z,1.98
2023-01-12T14:17:53.042Z,1.40
2023-01-12T14:20:25.847Z,1.88
2023-01-12T14:23:22.595Z,1.45
2023-01-12T14:26:16.581Z,1.40
2023-01-12T14:28:47.900Z,1.50
2023-01-12T14:32:04.216Z,1.67
2023-01-12T14:34:37.057Z,1.88
2023-01-12T14:37:07.719Z,1.20
2023-01-12T14:39:41.297Z,1.70
2023-01-12T14:42:37.544Z,1.33
2023-01-12T14:45:44.715Z,1.60
2023-01-12T14:48:24.975Z,1.42
2023-01-12T14:51:21.234Z,1.25
2023-01-12T14:53:54.445Z,1.13
2023-01-12T14:56:44.058Z,1.05
2023-01-12T14:59:19.264Z,1.23
2023-01-12T15:01:46.684Z,1.00
2023-01-12T15:04:25.183Z,1.55
2023-01-12T15:07:06.392Z,1.10
2023-01-12T15:09:37.111Z,1.40
2023-01-12T15:12:30.243Z,1.07
2023-01-12T15:15:54.524Z,1.15
2023-01-12T15:18:42.408Z,1.10
2023-01-12T15:21:28.048Z,1.00
2023-01-12T15:24:13.517Z,0.82
2023-01-12T15:26:49.320Z,1.60
2023-01-12T15:29:23.052Z,1.40
2023-01-12T15:31:49.951Z,1.00
2023-01-12T15:34:19.147Z,1.35
2023-01-12T15:36:45.953Z,1.20
2023-01-12T15:39:16.050Z,1.48
2023-01-12T15:42:01.445Z,1.10
2023-01-12T15:44:31.068Z,1.95
2023-01-12T15:46:57.964Z,3.67
2023-01-12T15:49:26.994Z,1.50
2023-01-12T15:51:53.969Z,1.63
2023-01-12T15:54:21.672Z,1.20
2023-01-12T15:56:57.279Z,1.50
2023-01-12T15:59:28.706Z,2.20
2023-01-12T16:01:55.615Z,1.08
2023-01-12T16:07:18.553Z,1.45
2023-01-12T16:09:50.580Z,1.40
2023-01-12T16:12:22.413Z,1.50
2023-01-12T16:14:49.451Z,1.33
2023-01-12T16:17:16.432Z,1.55
2023-01-12T16:19:43.799Z,2.03
2023-01-12T16:22:21.127Z,1.45
2023-01-12T16:24:48.889Z,1.35
2023-01-12T16:27:16.652Z,1.50
2023-01-12T16:29:46.218Z,1.50
2023-01-12T16:32:15.749Z,1.73
2023-01-12T16:34:42.640Z,1.88
2023-01-12T16:37:14.419Z,1.80
2023-01-12T16:39:42.002Z,1.98
2023-01-12T16:42:11.720Z,2.10
2023-01-12T16:44:41.632Z,2.17
2023-01-12T16:47:13.341Z,2.42
